createdAt,value
2023-04-20T00:02:25.125Z,68.10
2023-04-20T00:04:55.236Z,68.20
2023-04-20T00:07:26.494Z,68.30
2023-04-20T00:09:56.070Z,68.40
2023-04-20T00:12:25.639Z,68.70
2023-04-20T00:14:55.514Z,69.20
2023-04-20T00:17:25.187Z,69.20
2023-04-20T00:19:55.197Z,69.50
2023-04-20T00:22:24.790Z,69.10
2023-04-20T00:24:54.501Z,69.10
2023-04-20T00:27:24.253Z,69.50
2023-04-20T00:29:53.850Z,69.40
2023-04-20T00:32:23.475Z,69.90
2023-04-20T00:34:53.125Z,70.10
2023-04-20T00:37:22.687Z,70.00
2023-04-20T00:39:52.447Z,70.30
2023-04-20T00:42:22.031Z,70.00
2023-04-20T00:44:52.303Z,70.70
2023-04-20T00:47:22.102Z,70.40
2023-04-20T00:49:52.396Z,70.50
2023-04-20T00:52:23.012Z,69.60
2023-04-20T00:54:52.760Z,69.80
2023-04-20T00:57:26.156Z,70.60
2023-04-20T00:59:55.818Z,69.90
2023-04-20T01:02:25.552Z,69.00
2023-04-20T01:04:55.991Z,69.10
2023-04-20T01:07:25.548Z,69.60
2023-04-20T01:09:55.113Z,69.20
2023-04-20T01:12:25.066Z,69.40
2023-04-20T01:14:54.779Z,69.00
2023-04-20T01:17:25.853Z,69.30
2023-04-20T01:19:55.611Z,68.40
2023-04-20T01:22:25.550Z,68.10
2023-04-20T01:24:55.833Z,67.40
2023-04-20T01:27:25.442Z,66.10
2023-04-20T01:29:55.168Z,66.20
2023-04-20T01:32:24.853Z,63.60
2023-04-20T01:34:54.816Z,63.20
2023-04-20T01:37:24.468Z,63.80
2023-04-20T01:39:54.234Z,62.90
2023-04-20T01:42:24.209Z,62.80
2023-04-20T01:44:53.825Z,62.50
2023-04-20T01:47:23.610Z,62.90
2023-04-20T01:49:53.177Z,62.80
2023-04-20T01:52:22.866Z,63.00
2023-04-20T01:54:52.518Z,62.20
2023-04-20T01:57:22.126Z,62.70
2023-04-20T01:59:52.008Z,62.80
2023-04-20T02:02:21.673Z,61.90
2023-04-20T02:04:51.400Z,62.10
2023-04-20T02:07:21.027Z,61.40
2023-04-20T02:09:50.551Z,61.40
2023-04-20T02:12:20.168Z,61.30
2023-04-20T02:14:49.806Z,60.90
2023-04-20T02:17:19.853Z,61.30
2023-04-20T02:19:49.470Z,61.40
2023-04-20T02:22:19.337Z,61.10
2023-04-20T02:24:49.109Z,60.70
2023-04-20T02:27:18.741Z,60.80
2023-04-20T02:29:48.458Z,60.50
2023-04-20T02:32:18.399Z,60.20
2023-04-20T02:34:48.233Z,60.80
2023-04-20T02:37:17.835Z,59.90
2023-04-20T02:39:47.734Z,59.80
2023-04-20T02:42:17.345Z,59.30
2023-04-20T02:44:46.919Z,59.80
2023-04-20T02:47:16.743Z,60.00
2023-04-20T02:49:46.596Z,59.60
2023-04-20T02:52:16.333Z,59.20
2023-04-20T02:54:45.971Z,59.40
2023-04-20T02:57:15.505Z,58.90
2023-04-20T02:59:45.136Z,58.90
2023-04-20T03:02:14.743Z,59.50
2023-04-20T03:04:44.569Z,58.30
2023-04-20T03:07:16.011Z,58.70
2023-04-20T03:09:46.322Z,58.00
2023-04-20T03:12:16.080Z,58.10
2023-04-20T03:14:45.909Z,57.70
2023-04-20T03:17:15.601Z,57.90
2023-04-20T03:19:45.287Z,57.90
2023-04-20T03:22:14.944Z,58.30
2023-04-20T03:24:44.850Z,57.50
2023-04-20T03:27:14.439Z,57.90
2023-04-20T03:29:43.967Z,58.40
2023-04-20T03:32:13.661Z,57.40
2023-04-20T03:34:43.229Z,56.70
2023-04-20T03:37:12.877Z,57.20
2023-04-20T03:39:42.476Z,58.10
2023-04-20T03:42:12.175Z,57.00
2023-04-20T03:44:41.815Z,57.10
2023-04-20T03:47:12.535Z,57.20
2023-04-20T03:49:42.206Z,57.50
2023-04-20T03:52:12.600Z,56.60
2023-04-20T03:54:42.311Z,56.60
2023-04-20T03:57:11.901Z,56.50
2023-04-20T03:59:41.644Z,56.60
2023-04-20T04:02:12.560Z,57.20
2023-04-20T04:04:42.985Z,56.50
2023-04-20T04:07:12.854Z,56.30
2023-04-20T04:09:42.466Z,56.20
2023-04-20T04:12:12.472Z,56.10
2023-04-20T04:14:42.450Z,55.70
2023-04-20T04:17:12.377Z,55.80
2023-04-20T04:19:42.043Z,55.50
2023-04-20T04:22:11.848Z,55.60
2023-04-20T04:24:43.285Z,55.60
2023-04-20T04:27:15.925Z,55.50
2023-04-20T04:29:46.313Z,54.80
2023-04-20T04:32:16.447Z,54.30
2023-04-20T04:34:46.120Z,54.00
2023-04-20T04:37:16.131Z,54.70
2023-04-20T04:39:45.714Z,54.30
2023-04-20T04:42:15.289Z,54.50
2023-04-20T04:44:45.199Z,54.70
2023-04-20T04:47:15.894Z,54.30
2023-04-20T04:49:45.387Z,54.50
2023-04-20T04:52:15.769Z,54.00
2023-04-20T04:54:45.361Z,54.30
2023-04-20T04:57:16.485Z,54.40
2023-04-20T04:59:46.152Z,53.90
2023-04-20T05:02:15.905Z,54.00
2023-04-20T05:04:45.769Z,53.90
2023-04-20T05:07:19.143Z,53.30
2023-04-20T05:09:48.713Z,52.80
2023-04-20T05:12:18.350Z,52.60
2023-04-20T05:14:47.859Z,52.90
2023-04-20T05:17:17.791Z,53.00
2023-04-20T05:19:47.409Z,53.30
2023-04-20T05:22:17.073Z,53.00
2023-04-20T05:24:46.871Z,53.00
2023-04-20T05:27:16.544Z,53.10
2023-04-20T05:29:46.089Z,51.40
2023-04-20T05:32:15.662Z,51.10
2023-04-20T05:34:45.122Z,51.90
2023-04-20T05:37:15.044Z,52.20
2023-04-20T05:39:44.748Z,52.30
2023-04-20T05:42:14.389Z,52.20
2023-04-20T05:44:45.474Z,52.30
2023-04-20T05:47:15.004Z,52.00
2023-04-20T05:49:44.687Z,52.00
2023-04-20T05:52:14.175Z,52.00
2023-04-20T05:54:43.784Z,52.00
2023-04-20T05:57:13.475Z,51.50
2023-04-20T05:59:43.149Z,51.00
2023-04-20T06:02:12.773Z,50.60
2023-04-20T06:04:44.198Z,50.80
2023-04-20T06:07:14.054Z,50.50
2023-04-20T06:09:44.037Z,50.50
2023-04-20T06:12:13.600Z,50.60
2023-04-20T06:14:43.279Z,49.80
2023-04-20T06:17:12.945Z,49.40
2023-04-20T06:19:42.613Z,48.90
2023-04-20T06:22:12.652Z,49.50
2023-04-20T06:24:43.996Z,50.20
2023-04-20T06:27:14.580Z,48.30
2023-04-20T06:29:44.167Z,48.60
2023-04-20T06:32:13.729Z,48.60
2023-04-20T06:34:43.355Z,48.30
2023-04-20T06:37:12.949Z,48.20
2023-04-20T06:39:42.461Z,48.70
2023-04-20T06:42:11.982Z,49.00
2023-04-20T06:44:42.573Z,49.50
2023-04-20T06:47:12.102Z,49.80
2023-04-20T06:49:41.663Z,49.60
2023-04-20T06:52:11.266Z,49.50
2023-04-20T06:54:40.972Z,48.50
2023-04-20T06:57:10.566Z,47.80
2023-04-20T06:59:40.188Z,47.70
2023-04-20T07:02:10.071Z,48.10
2023-04-20T07:04:39.993Z,48.40
2023-04-20T07:07:09.586Z,48.60
2023-04-20T07:09:39.165Z,48.70
2023-04-20T07:12:08.956Z,48.90
2023-04-20T07:14:38.647Z,49.20
2023-04-20T07:17:09.229Z,49.60
2023-04-20T07:19:39.125Z,49.30
2023-04-20T07:22:09.120Z,49.70
2023-04-20T07:24:38.804Z,50.20
2023-04-20T07:27:10.110Z,50.80
2023-04-20T07:29:39.733Z,51.10
2023-04-20T07:32:09.490Z,51.00
2023-04-20T07:34:40.850Z,51.40
2023-04-20T07:37:10.598Z,51.40
2023-04-20T07:39:40.240Z,51.80
2023-04-20T07:42:09.869Z,52.00
2023-04-20T07:44:39.900Z,52.30
2023-04-20T07:47:09.532Z,52.70
2023-04-20T07:49:42.252Z,54.10
2023-04-20T07:52:16.937Z,54.20
2023-04-20T07:54:48.123Z,54.00
2023-04-20T07:57:18.120Z,54.00
2023-04-20T07:59:48.876Z,54.00
2023-04-20T08:02:19.404Z,54.00
2023-04-20T08:04:50.473Z,54.30
2023-04-20T08:07:20.570Z,54.60
2023-04-20T08:09:50.129Z,54.70
2023-04-20T08:12:19.719Z,55.00
2023-04-20T08:14:49.265Z,55.10
2023-04-20T08:17:18.873Z,55.20
2023-04-20T08:19:48.959Z,55.30
2023-04-20T08:22:18.450Z,55.60
2023-04-20T08:24:48.709Z,56.10
2023-04-20T08:27:18.849Z,56.80
2023-04-20T08:29:48.433Z,57.50
2023-04-20T08:32:20.200Z,56.60
2023-04-20T08:34:49.780Z,56.90
2023-04-20T08:37:19.380Z,57.80
2023-04-20T08:39:49.043Z,58.20
2023-04-20T08:42:18.865Z,58.90
2023-04-20T08:44:48.585Z,60.50
2023-04-20T08:47:18.314Z,60.80
2023-04-20T08:49:49.166Z,61.90
2023-04-20T08:52:18.824Z,62.40
2023-04-20T08:54:56.150Z,62.50
2023-04-20T08:57:27.967Z,63.80
2023-04-20T08:59:58.559Z,63.60
2023-04-20T09:02:28.294Z,64.50
2023-04-20T09:05:10.298Z,64.70
2023-04-20T09:07:40.214Z,64.60
2023-04-20T09:10:10.100Z,64.40
2023-04-20T09:12:44.900Z,64.50
2023-04-20T09:15:28.918Z,64.50
2023-04-20T09:17:59.308Z,64.40
2023-04-20T09:20:36.592Z,64.40
2023-04-20T09:23:25.966Z,64.40
2023-04-20T09:25:55.692Z,64.50
2023-04-20T09:28:25.344Z,64.00
2023-04-20T09:30:55.012Z,64.00
2023-04-20T09:33:31.154Z,63.80
2023-04-20T09:36:07.940Z,63.60
2023-04-20T09:38:37.863Z,63.30
2023-04-20T09:41:08.071Z,63.20
2023-04-20T09:43:38.027Z,63.00
2023-04-20T09:46:09.479Z,62.90
2023-04-20T09:48:39.419Z,62.80
2023-04-20T09:51:09.854Z,62.80
2023-04-20T09:53:40.292Z,62.90
2023-04-20T09:56:10.145Z,62.90
2023-04-20T09:58:41.185Z,62.80
2023-04-20T10:01:13.111Z,62.70
2023-04-20T10:03:47.095Z,62.80
2023-04-20T10:06:28.076Z,62.80
2023-04-20T10:08:58.443Z,63.00
2023-04-20T10:11:51.604Z,62.00
2023-04-20T10:14:27.494Z,61.70
2023-04-20T10:17:16.866Z,61.20
2023-04-20T10:19:48.564Z,61.40
2023-04-20T10:22:34.343Z,61.30
2023-04-20T10:25:17.644Z,61.20
2023-04-20T10:28:04.719Z,61.30
2023-04-20T10:30:35.840Z,61.30
2023-04-20T10:33:15.105Z,61.10
2023-04-20T10:35:53.675Z,61.10
2023-04-20T10:38:33.927Z,61.30
2023-04-20T10:41:14.203Z,61.10
2023-04-20T10:43:47.008Z,61.30
2023-04-20T10:46:24.764Z,61.60
2023-04-20T10:48:59.382Z,61.80
2023-04-20T10:51:29.423Z,60.50
2023-04-20T10:54:09.264Z,60.20
2023-04-20T10:56:43.678Z,59.70
2023-04-20T10:59:18.705Z,59.10
2023-04-20T11:01:49.791Z,58.50
2023-04-20T11:04:20.235Z,58.90
2023-04-20T11:06:50.378Z,58.80
2023-04-20T11:09:28.268Z,58.60
2023-04-20T11:12:05.536Z,58.60
2023-04-20T11:14:37.229Z,58.20
2023-04-20T11:17:07.306Z,58.30
2023-04-20T11:19:39.074Z,58.30
2023-04-20T11:22:08.751Z,58.30
2023-04-20T11:24:39.838Z,58.50
2023-04-20T11:27:09.465Z,58.50
2023-04-20T11:29:41.268Z,58.60
2023-04-20T11:32:12.500Z,58.60
2023-04-20T11:34:43.484Z,58.40
2023-04-20T11:37:17.419Z,57.10
2023-04-20T11:39:47.027Z,56.50
2023-04-20T11:42:16.588Z,54.10
2023-04-20T11:44:46.152Z,53.60
2023-04-20T11:47:16.807Z,53.40
2023-04-20T11:49:46.431Z,53.70
2023-04-20T11:52:16.025Z,54.20
2023-04-20T11:54:46.398Z,54.00
2023-04-20T11:57:16.001Z,54.30
2023-04-20T11:59:49.668Z,54.30
2023-04-20T12:02:19.568Z,54.60
2023-04-20T12:04:49.376Z,54.70
2023-04-20T12:07:19.026Z,54.90
2023-04-20T12:09:48.601Z,55.00
2023-04-20T12:12:18.213Z,55.20
2023-04-20T12:14:47.847Z,55.20
2023-04-20T12:17:17.632Z,54.90
2023-04-20T12:19:47.424Z,54.90
2023-04-20T12:22:17.007Z,55.10
2023-04-20T12:24:47.303Z,54.80
2023-04-20T12:27:17.142Z,54.60
2023-04-20T12:29:46.740Z,55.10
2023-04-20T12:32:16.366Z,55.40
2023-04-20T12:34:45.992Z,55.60
2023-04-20T12:37:16.509Z,55.90
2023-04-20T12:39:46.153Z,55.60
2023-04-20T12:42:15.841Z,55.90
2023-04-20T12:44:45.476Z,56.30
2023-04-20T12:47:15.369Z,56.10
2023-04-20T12:49:44.855Z,56.30
2023-04-20T12:52:14.624Z,56.30
2023-04-20T12:54:44.557Z,56.60
2023-04-20T12:57:14.789Z,56.90
2023-04-20T12:59:44.652Z,57.00
2023-04-20T13:02:14.570Z,57.10
2023-04-20T13:04:44.207Z,57.30
2023-04-20T13:07:13.918Z,57.30
2023-04-20T13:09:43.462Z,57.40
2023-04-20T13:12:15.074Z,57.50
2023-04-20T13:14:44.720Z,57.60
2023-04-20T13:17:15.509Z,57.60
2023-04-20T13:19:45.494Z,57.70
2023-04-20T13:22:18.079Z,57.70
2023-04-20T13:24:48.876Z,57.70
2023-04-20T13:27:18.429Z,57.80
2023-04-20T13:29:48.026Z,57.90
2023-04-20T13:32:17.610Z,58.00
2023-04-20T13:34:47.825Z,58.10
2023-04-20T13:37:17.370Z,58.10
2023-04-20T13:39:47.016Z,58.10
2023-04-20T13:42:16.584Z,58.20
2023-04-20T13:44:46.183Z,58.50
2023-04-20T13:47:16.634Z,58.60
2023-04-20T13:49:46.307Z,58.60
2023-04-20T13:52:15.953Z,58.80
2023-04-20T13:54:45.506Z,59.10
2023-04-20T13:57:15.076Z,59.30
2023-04-20T13:59:44.762Z,59.40
2023-04-20T14:02:14.286Z,59.40
2023-04-20T14:04:43.972Z,59.50
2023-04-20T14:07:13.695Z,59.50
2023-04-20T14:09:45.746Z,59.80
2023-04-20T14:12:16.454Z,60.10
2023-04-20T14:14:45.968Z,60.30
2023-04-20T14:17:18.425Z,60.30
2023-04-20T14:19:48.028Z,60.40
2023-04-20T14:22:18.018Z,60.50
2023-04-20T14:24:48.303Z,60.70
2023-04-20T14:27:17.886Z,60.80
2023-04-20T14:29:47.489Z,61.00
2023-04-20T14:32:17.070Z,61.10
2023-04-20T14:34:46.824Z,61.30
2023-04-20T14:37:16.545Z,61.40
2023-04-20T14:39:46.111Z,61.80
2023-04-20T14:42:15.914Z,62.10
2023-04-20T14:44:45.567Z,62.40
2023-04-20T14:47:15.129Z,62.50
2023-04-20T14:49:46.343Z,62.60
2023-04-20T14:52:20.190Z,62.80
2023-04-20T14:54:49.854Z,62.90
2023-04-20T14:57:19.460Z,63.00
2023-04-20T14:59:49.031Z,63.10
2023-04-20T15:02:20.006Z,63.10
2023-04-20T15:04:50.353Z,63.30
2023-04-20T15:07:20.430Z,64.10
2023-04-20T15:09:50.031Z,64.20
2023-04-20T15:12:19.532Z,64.40
2023-04-20T15:14:49.056Z,64.60
2023-04-20T15:17:18.614Z,64.80
2023-04-20T15:19:48.148Z,65.20
2023-04-20T15:22:17.872Z,65.70
2023-04-20T15:24:47.429Z,65.80
2023-04-20T15:27:18.711Z,66.30
2023-04-20T15:29:48.244Z,66.30
2023-04-20T15:32:17.934Z,66.50
2023-04-20T15:34:47.496Z,66.60
2023-04-20T15:37:17.081Z,66.50
2023-04-20T15:39:46.759Z,66.40
2023-04-20T15:42:16.298Z,66.40
2023-04-20T15:44:45.978Z,66.70
2023-04-20T15:47:15.680Z,67.10
2023-04-20T15:49:45.281Z,67.50
2023-04-20T15:52:14.896Z,67.60
2023-04-20T15:54:45.429Z,67.60
2023-04-20T15:57:15.242Z,67.70
2023-04-20T15:59:45.313Z,67.90
2023-04-20T16:02:15.136Z,67.90
2023-04-20T16:04:45.391Z,67.50
2023-04-20T16:07:16.368Z,67.30
2023-04-20T16:09:45.993Z,67.00
2023-04-20T16:12:15.624Z,67.00
2023-04-20T16:14:45.245Z,66.80
2023-04-20T16:17:15.132Z,66.60
2023-04-20T16:19:44.863Z,66.60
2023-04-20T16:22:15.749Z,66.70
2023-04-20T16:24:45.416Z,66.70
2023-04-20T16:27:15.072Z,66.70
2023-04-20T16:29:44.718Z,67.00
2023-04-20T16:32:14.707Z,67.20
2023-04-20T16:34:44.314Z,67.60
2023-04-20T16:37:14.004Z,67.90
2023-04-20T16:39:43.853Z,68.00
2023-04-20T16:42:13.517Z,67.80
2023-04-20T16:44:43.174Z,67.60
2023-04-20T16:47:12.775Z,67.60
2023-04-20T16:49:42.508Z,67.60
2023-04-20T16:52:12.180Z,67.50
2023-04-20T16:54:43.381Z,67.30
2023-04-20T16:57:13.395Z,67.20
2023-04-20T16:59:44.711Z,67.50
2023-04-20T17:02:15.571Z,67.50
2023-04-20T17:04:45.260Z,67.70
2023-04-20T17:07:15.437Z,67.70
2023-04-20T17:09:45.038Z,67.70
2023-04-20T17:12:14.632Z,67.60
2023-04-20T17:14:45.035Z,67.80
2023-04-20T17:17:14.610Z,68.00
2023-04-20T17:19:44.251Z,68.60
2023-04-20T17:22:13.816Z,68.90
2023-04-20T17:24:43.399Z,69.60
2023-04-20T17:27:12.933Z,69.80
2023-04-20T17:29:44.704Z,70.40
2023-04-20T17:32:14.562Z,70.30
2023-04-20T17:34:50.338Z,70.60
2023-04-20T17:37:24.619Z,70.60
2023-04-20T17:39:54.195Z,70.50
2023-04-20T17:42:23.717Z,70.60
2023-04-20T17:44:53.901Z,70.60
2023-04-20T17:47:23.466Z,70.60
2023-04-20T17:49:53.738Z,70.60
2023-04-20T17:52:23.896Z,70.70
2023-04-20T17:54:54.392Z,70.90
2023-04-20T17:57:24.101Z,71.00
2023-04-20T17:59:53.643Z,71.00
2023-04-20T18:02:25.423Z,70.90
2023-04-20T18:04:56.924Z,70.90
2023-04-20T18:07:26.794Z,70.90
2023-04-20T18:09:56.460Z,70.90
2023-04-20T18:12:26.176Z,70.70
2023-04-20T18:14:55.731Z,70.60
2023-04-20T18:17:25.329Z,70.60
2023-04-20T18:19:54.950Z,70.70
2023-04-20T18:22:25.818Z,70.60
2023-04-20T18:24:55.879Z,70.30
2023-04-20T18:27:25.506Z,70.30
2023-04-20T18:29:55.296Z,70.20
2023-04-20T18:32:24.830Z,70.20
2023-04-20T18:34:54.726Z,70.10
2023-04-20T18:37:24.272Z,69.90
2023-04-20T18:39:53.845Z,70.00
2023-04-20T18:42:23.676Z,69.90
2023-04-20T18:44:55.186Z,69.80
2023-04-20T18:47:27.081Z,69.90
2023-04-20T18:49:56.652Z,69.70
2023-04-20T18:52:26.233Z,69.70
2023-04-20T18:54:57.091Z,69.70
2023-04-20T18:57:30.068Z,69.70
2023-04-20T18:59:59.677Z,70.00
2023-04-20T19:02:29.518Z,69.80
2023-04-20T19:04:59.326Z,70.00
2023-04-20T19:07:29.049Z,70.00
2023-04-20T19:09:58.721Z,70.10
2023-04-20T19:12:29.418Z,70.00
2023-04-20T19:14:59.061Z,69.80
2023-04-20T19:17:28.736Z,69.60
2023-04-20T19:19:59.066Z,69.60
2023-04-20T19:22:28.633Z,69.70
2023-04-20T19:24:58.239Z,69.60
2023-04-20T19:27:28.489Z,69.40
2023-04-20T19:29:58.003Z,69.30
2023-04-20T19:32:27.722Z,69.50
2023-04-20T19:34:59.379Z,69.50
2023-04-20T19:37:29.498Z,69.60
2023-04-20T19:39:59.111Z,69.60
2023-04-20T19:42:28.699Z,69.60
2023-04-20T19:44:59.708Z,69.60
2023-04-20T19:47:29.319Z,69.60
2023-04-20T19:49:59.807Z,69.50
2023-04-20T19:52:30.121Z,69.50
2023-04-20T19:54:59.740Z,69.60
2023-04-20T19:57:29.399Z,69.60
2023-04-20T19:59:59.108Z,69.40
2023-04-20T20:02:28.837Z,69.50
2023-04-20T20:04:58.499Z,69.50
2023-04-20T20:07:28.163Z,69.50
2023-04-20T20:09:57.809Z,69.50
2023-04-20T20:12:27.664Z,69.70
2023-04-20T20:14:57.224Z,69.90
2023-04-20T20:17:26.985Z,69.90
2023-04-20T20:19:57.157Z,69.80
2023-04-20T20:22:26.912Z,69.60
2023-04-20T20:24:56.531Z,69.40
2023-04-20T20:27:26.056Z,69.30
2023-04-20T20:29:55.629Z,69.00
2023-04-20T20:32:26.433Z,69.00
2023-04-20T20:34:56.084Z,69.00
2023-04-20T20:37:25.982Z,69.00
2023-04-20T20:39:55.611Z,69.00
2023-04-20T20:42:25.166Z,69.10
2023-04-20T20:44:54.653Z,69.40
2023-04-20T20:47:25.894Z,69.60
2023-04-20T20:49:55.505Z,69.60
2023-04-20T20:52:25.149Z,69.50
2023-04-20T20:54:54.662Z,69.50
2023-04-20T20:57:24.428Z,69.70
2023-04-20T20:59:54.016Z,70.00
2023-04-20T21:02:23.901Z,69.70
2023-04-20T21:04:53.632Z,69.70
2023-04-20T21:07:23.168Z,70.40
2023-04-20T21:09:52.673Z,69.60
2023-04-20T21:12:22.317Z,69.50
2023-04-20T21:14:53.894Z,69.50
2023-04-20T21:17:23.604Z,69.70
2023-04-20T21:19:53.183Z,69.90
2023-04-20T21:22:24.078Z,70.20
2023-04-20T21:24:53.674Z,70.30
2023-04-20T21:27:23.259Z,70.30
2023-04-20T21:29:52.798Z,70.20
2023-04-20T21:32:22.759Z,70.20
2023-04-20T21:34:53.302Z,70.20
2023-04-20T21:37:22.938Z,70.40
2023-04-20T21:39:53.009Z,70.60
2023-04-20T21:42:22.770Z,70.60
2023-04-20T21:44:52.310Z,70.90
2023-04-20T21:47:21.937Z,71.10
2023-04-20T21:49:51.469Z,71.10
2023-04-20T21:52:21.158Z,71.10
2023-04-20T21:54:50.782Z,71.20
2023-04-20T21:57:20.686Z,71.40
2023-04-20T21:59:50.352Z,71.40
2023-04-20T22:02:19.973Z,71.90
2023-04-20T22:04:50.619Z,72.10
2023-04-20T22:07:20.323Z,72.70
2023-04-20T22:09:49.843Z,72.90
2023-04-20T22:12:32.283Z,73.10
2023-04-20T22:15:10.973Z,73.20
2023-04-20T22:17:40.698Z,73.00
2023-04-20T22:20:12.519Z,72.90
2023-04-20T22:22:42.807Z,72.70
2023-04-20T22:25:12.673Z,72.60
2023-04-20T22:27:42.358Z,72.40
2023-04-20T22:30:12.403Z,72.60
2023-04-20T22:32:42.610Z,72.60
2023-04-20T22:35:12.374Z,72.90
2023-04-20T22:37:42.518Z,73.20
2023-04-20T22:40:13.925Z,73.30
2023-04-20T22:42:43.552Z,73.90
2023-04-20T22:45:13.565Z,74.70
2023-04-20T22:47:43.363Z,75.30
2023-04-20T22:50:13.836Z,75.50
2023-04-20T22:52:43.482Z,75.70
2023-04-20T22:55:13.632Z,75.70
2023-04-20T22:57:43.358Z,75.90
2023-04-20T23:00:15.284Z,76.00
2023-04-20T23:02:44.975Z,75.90
2023-04-20T23:05:14.689Z,75.70
2023-04-20T23:07:46.877Z,76.10
2023-04-20T23:10:20.565Z,76.50
2023-04-20T23:12:51.365Z,76.80
2023-04-20T23:15:20.927Z,76.80
2023-04-20T23:17:50.572Z,76.50
2023-04-20T23:20:20.210Z,76.80
2023-04-20T23:22:49.888Z,77.10
2023-04-20T23:25:19.589Z,77.10
2023-04-20T23:27:49.184Z,77.00
2023-04-20T23:30:18.880Z,76.80
2023-04-20T23:32:48.448Z,76.90
2023-04-20T23:35:18.026Z,77.00
2023-04-20T23:37:47.584Z,77.00
2023-04-20T23:40:17.371Z,77.00
2023-04-20T23:42:47.006Z,77.10
2023-04-20T23:45:16.629Z,77.30
2023-04-20T23:47:46.269Z,77.40
2023-04-20T23:50:16.065Z,77.40
2023-04-20T23:52:45.539Z,77.40
2023-04-20T23:55:15.915Z,77.20
2023-04-20T23:57:45.613Z,77.20
